Time;durP1;ratioP1;P1;durP2;ratioP2;P2;SDS_P1;SDS_P2;PMS_P1;PMS_P2;Temp;Humidity;BMP_temperature;BMP_pressure;BME280_temperature;BME280_humidity;BME280_pressure;Samples;Min_cycle;Max_cycle;Signal;HPM_P1;HPM_P2
2023/01/06 00:01:16;;;;;;;6.22;2.85;;;;;;;4.75;90.50;100066.13;5053634;28;20028;-76
2023/01/06 00:03:41;;;;;;;5.28;3.03;;;;;;;4.75;90.62;100065.28;5051944;28;20025;-76
2023/01/06 00:06:11;;;;;;;6.22;2.83;;;;;;;4.79;90.57;100072.09;5053250;28;20456;-76
2023/01/06 00:08:36;;;;;;;4.50;2.75;;;;;;;4.77;90.69;100063.53;5052867;28;20017;-76
2023/01/06 00:11:09;;;;;;;4.70;2.85;;;;;;;4.71;90.42;100068.78;5053356;28;20047;-76
2023/01/06 00:13:35;;;;;;;4.45;2.65;;;;;;;4.67;90.47;100062.81;5052870;28;20029;-75
2023/01/06 00:16:08;;;;;;;5.28;3.17;;;;;;;4.64;90.79;100073.22;5053061;28;20036;-76
2023/01/06 00:18:34;;;;;;;8.38;3.83;;;;;;;4.52;90.92;100065.66;5052725;28;20357;-76
2023/01/06 00:21:01;;;;;;;4.88;3.10;;;;;;;4.44;91.47;100077.81;5052951;28;20060;-76
2023/01/06 00:23:26;;;;;;;5.40;3.13;;;;;;;4.26;91.85;100076.34;5053122;28;20028;-76
2023/01/06 00:25:52;;;;;;;8.65;3.28;;;;;;;4.15;92.09;100073.91;5052894;28;20020;-76
2023/01/06 00:28:18;;;;;;;5.78;2.75;;;;;;;4.06;92.29;100076.63;5052761;28;20033;-76
2023/01/06 00:30:43;;;;;;;5.55;2.92;;;;;;;3.99;92.91;100093.03;5052598;28;20032;-76
2023/01/06 00:33:09;;;;;;;7.68;3.30;;;;;;;3.93;93.48;100096.53;5052734;28;20129;-76
2023/01/06 00:35:34;;;;;;;8.75;3.22;;;;;;;3.83;93.74;100089.78;5052260;28;20025;-76
2023/01/06 00:37:59;;;;;;;6.30;3.35;;;;;;;3.74;94.22;100087.31;5052560;28;20020;-76
2023/01/06 00:40:25;;;;;;;4.82;3.25;;;;;;;3.70;94.42;100101.09;5052545;28;20376;-76
2023/01/06 00:42:50;;;;;;;6.30;4.00;;;;;;;3.66;94.99;100109.75;5052359;28;20400;-76
2023/01/06 00:45:16;;;;;;;6.35;3.42;;;;;;;3.62;95.13;100110.63;5052469;28;20063;-76
2023/01/06 00:47:41;;;;;;;7.55;3.45;;;;;;;3.52;95.45;100109.91;5052250;28;20060;-76
2023/01/06 00:50:07;;;;;;;6.00;3.13;;;;;;;3.42;95.79;100108.31;5052337;28;20024;-76
2023/01/06 00:52:33;;;;;;;8.63;3.15;;;;;;;3.46;96.08;100125.44;5052058;28;20025;-76
2023/01/06 00:54:58;;;;;;;6.32;3.53;;;;;;;3.42;96.26;100122.03;5052311;28;20534;-76
2023/01/06 00:57:24;;;;;;;6.70;3.72;;;;;;;3.36;96.37;100116.91;5052699;28;20032;-76
2023/01/06 00:59:49;;;;;;;6.65;3.40;;;;;;;3.35;96.44;100132.38;5052084;28;20021;-76
2023/01/06 01:02:14;;;;;;;8.30;3.38;;;;;;;3.31;96.76;100133.28;5052247;28;20078;-76
2023/01/06 01:04:40;;;;;;;7.68;3.65;;;;;;;3.27;97.17;100127.31;5052040;28;20013;-76
2023/01/06 01:07:06;;;;;;;7.40;3.90;;;;;;;3.24;97.15;100133.34;5052375;28;20025;-76
2023/01/06 01:09:32;;;;;;;8.27;3.63;;;;;;;3.23;97.34;100147.06;5052107;28;20021;-76
2023/01/06 01:12:11;;;;;;;6.57;3.70;;;;;;;3.22;97.76;100153.09;5052217;28;20105;-76
2023/01/06 01:14:39;;;;;;;6.60;3.50;;;;;;;3.24;97.76;100153.06;5051648;28;20360;-76
2023/01/06 01:17:04;;;;;;;5.93;3.53;;;;;;;3.16;97.59;100136.84;5051957;28;20029;-77
2023/01/06 01:19:30;;;;;;;8.23;3.70;;;;;;;3.31;97.58;100165.03;5051929;28;20086;-76
2023/01/06 01:21:56;;;;;;;7.25;3.15;;;;;;;3.35;97.67;100156.41;5051824;28;20031;-76
2023/01/06 01:24:21;;;;;;;9.85;3.35;;;;;;;3.43;97.42;100166.66;5052182;28;20021;-76
2023/01/06 01:26:47;;;;;;;6.40;3.13;;;;;;;3.47;97.33;100164.03;5051807;28;20114;-76
2023/01/06 01:29:14;;;;;;;7.18;3.05;;;;;;;3.54;97.09;100171.69;5051924;28;20138;-76
2023/01/06 01:31:40;;;;;;;7.07;3.67;;;;;;;3.55;96.99;100166.53;5051557;28;20154;-76
2023/01/06 01:34:06;;;;;;;5.53;3.15;;;;;;;3.64;96.44;100169.00;5051757;28;20021;-76
2023/01/06 01:36:32;;;;;;;5.28;2.83;;;;;;;3.58;96.29;100161.38;5051863;28;20089;-76
2023/01/06 01:38:58;;;;;;;7.03;3.38;;;;;;;3.61;96.17;100168.19;5051905;28;20536;-76
2023/01/06 01:41:25;;;;;;;6.32;3.15;;;;;;;3.67;96.08;100179.28;5051756;28;20041;-76
2023/01/06 01:44:00;;;;;;;7.03;3.08;;;;;;;3.66;95.61;100175.00;5051531;28;20052;-76
2023/01/06 01:46:31;;;;;;;6.32;3.00;;;;;;;3.68;95.75;100175.84;5051709;28;20025;-76
2023/01/06 01:49:05;;;;;;;6.30;3.13;;;;;;;3.68;95.52;100183.56;5051440;28;20024;-76
2023/01/06 01:51:36;;;;;;;4.43;2.42;;;;;;;3.66;95.57;100177.56;5051686;28;20025;-76
2023/01/06 01:54:06;;;;;;;4.85;2.90;;;;;;;3.65;95.53;100175.00;5051712;28;20021;-76
2023/01/06 01:56:34;;;;;;;6.32;3.10;;;;;;;3.67;95.53;100178.44;5051582;28;20515;-76
2023/01/06 01:59:07;;;;;;;8.27;2.58;;;;;;;3.71;95.58;100183.53;5051812;28;20035;-76
2023/01/06 02:01:33;;;;;;;9.77;3.35;;;;;;;3.69;95.29;100177.53;5051560;28;20032;-76
2023/01/06 02:04:00;;;;;;;6.60;3.15;;;;;;;3.65;95.31;100183.59;5051687;28;20480;-76
2023/01/06 02:06:26;;;;;;;7.80;2.97;;;;;;;3.61;95.75;100181.91;5051721;28;20040;-76
2023/01/06 02:09:22;;;;;;;6.72;3.30;;;;;;;3.65;95.28;100186.16;5051330;28;20013;-76
2023/01/06 02:11:50;;;;;;;5.82;2.88;;;;;;;3.58;95.54;100178.50;5028911;28;20117;-76
2023/01/06 02:14:25;;;;;;;5.25;3.08;;;;;;;3.50;95.63;100170.88;5029221;28;20064;-76
2023/01/06 02:16:50;;;;;;;6.43;2.88;;;;;;;3.63;95.60;100195.66;5028787;28;20048;-76
2023/01/06 02:19:24;;;;;;;5.78;3.03;;;;;;;3.66;95.87;100189.59;5029121;28;20029;-76
2023/01/06 02:22:11;;;;;;;5.10;2.65;;;;;;;3.66;95.52;100187.88;5028731;28;20080;-76
2023/01/06 02:24:58;;;;;;;7.75;3.20;;;;;;;3.66;95.33;100199.91;5028804;28;20013;-76
2023/01/06 02:27:44;;;;;;;4.20;2.63;;;;;;;3.65;95.10;100186.16;5030779;28;20033;-76
2023/01/06 02:30:34;;;;;;;5.90;3.10;;;;;;;3.64;95.54;100191.34;5032675;28;20080;-76
2023/01/06 02:33:17;;;;;;;4.85;2.80;;;;;;;3.64;95.75;100179.31;5032676;28;20029;-76
2023/01/06 02:36:01;;;;;;;5.45;3.20;;;;;;;3.65;95.71;100187.91;5032336;28;20041;-76
2023/01/06 02:38:32;;;;;;;7.72;3.20;;;;;;;3.62;95.38;100185.34;5032745;28;20039;-76
2023/01/06 02:41:11;;;;;;;8.48;3.60;;;;;;;3.57;95.63;100171.66;5032413;28;20034;-76
2023/01/06 02:43:46;;;;;;;5.22;3.05;;;;;;;3.50;95.89;100155.44;5032246;28;20062;-76
2023/01/06 02:46:36;;;;;;;6.60;3.08;;;;;;;3.65;96.25;100181.00;5032252;28;20025;-76
2023/01/06 02:49:21;;;;;;;6.30;3.00;;;;;;;3.61;96.14;100179.34;5047714;28;20036;-76
2023/01/06 02:51:54;;;;;;;5.30;3.10;;;;;;;3.64;96.26;100176.75;5054610;28;20103;-76
2023/01/06 02:54:35;;;;;;;5.43;2.83;;;;;;;3.52;95.99;100156.25;5054654;28;20025;-76
2023/01/06 02:57:49;;;;;;;3.95;2.72;;;;;;;3.66;95.37;100179.28;5054403;28;20024;-76
2023/01/06 03:00:28;;;;;;;7.30;3.20;;;;;;;3.54;95.25;100163.94;5032238;28;20036;-76
2023/01/06 03:02:59;;;;;;;7.07;3.55;;;;;;;3.60;95.56;100169.91;5031752;28;20056;-76
2023/01/06 03:05:26;;;;;;;5.07;2.70;;;;;;;3.65;95.38;100180.16;5032196;28;20401;-76
2023/01/06 03:07:54;;;;;;;6.70;3.78;;;;;;;3.60;95.61;100166.50;5031780;28;20477;-76
2023/01/06 03:10:24;;;;;;;5.20;3.17;;;;;;;3.65;95.77;100180.16;5032048;28;20025;-77
2023/01/06 03:12:59;;;;;;;4.83;3.40;;;;;;;3.64;95.18;100179.31;5031814;28;20124;-76
2023/01/06 03:15:25;;;;;;;6.25;3.40;;;;;;;3.62;94.84;100175.88;5031821;28;20025;-76
2023/01/06 03:17:51;;;;;;;5.88;3.33;;;;;;;3.62;94.58;100175.03;5031628;28;20029;-76
2023/01/06 03:20:17;;;;;;;6.72;3.08;;;;;;;3.62;94.58;100178.47;5031614;28;20056;-76
2023/01/06 03:22:43;;;;;;;5.50;2.92;;;;;;;3.57;94.98;100174.22;5031601;28;20037;-76
2023/01/06 03:25:09;;;;;;;5.70;2.97;;;;;;;3.58;94.94;100183.66;5031739;28;20025;-76
2023/01/06 03:27:35;;;;;;;5.03;2.78;;;;;;;3.60;95.00;100190.53;5031639;28;20095;-76
2023/01/06 03:30:05;;;;;;;4.68;3.17;;;;;;;3.59;94.92;100186.25;5031580;28;20108;-76
2023/01/06 03:32:33;;;;;;;6.22;2.90;;;;;;;3.61;94.97;100191.38;5031622;28;20033;-76
2023/01/06 03:35:39;;;;;;;6.53;3.10;;;;;;;3.58;94.98;100187.13;5051587;28;20037;-76
2023/01/06 03:38:15;;;;;;;2.75;2.47;;;;;;;3.58;95.02;100184.53;5053700;28;20032;-76
2023/01/06 03:40:49;;;;;;;5.80;3.10;;;;;;;3.59;95.17;100185.38;5053558;28;20021;-75
2023/01/06 03:43:44;;;;;;;5.72;2.80;;;;;;;3.54;95.02;100164.84;5053507;28;20086;-75
2023/01/06 03:46:53;;;;;;;5.70;2.78;;;;;;;3.61;94.89;100188.78;5053799;28;20035;-75
2023/01/06 03:49:28;;;;;;;5.22;2.72;;;;;;;3.59;94.83;100181.09;5031388;28;20470;-75
2023/01/06 03:51:58;;;;;;;5.05;3.03;;;;;;;3.56;94.75;100186.25;5031009;28;20495;-75
2023/01/06 03:54:38;;;;;;;4.47;3.22;;;;;;;3.60;94.95;100195.66;5031052;28;20071;-75
2023/01/06 03:57:10;;;;;;;5.75;3.30;;;;;;;3.54;95.41;100180.28;5031036;28;20068;-75
2023/01/06 03:59:42;;;;;;;4.07;3.00;;;;;;;3.58;95.17;100186.25;5031033;28;20025;-75
2023/01/06 04:02:08;;;;;;;4.93;2.95;;;;;;;3.58;94.48;100191.38;5030994;28;20033;-75
2023/01/06 04:04:33;;;;;;;4.60;3.05;;;;;;;3.58;94.75;100188.81;5031049;28;20030;-75
2023/01/06 04:06:58;;;;;;;4.13;3.13;;;;;;;3.51;95.41;100180.31;5030690;28;20408;-75
2023/01/06 04:09:24;;;;;;;3.92;2.70;;;;;;;3.57;95.01;100187.97;5030867;28;20109;-75
2023/01/06 04:14:32;;;;;;;3.30;2.83;;;;;;;3.46;94.59;100171.78;5030709;28;20384;-75
2023/01/06 04:16:58;;;;;;;5.45;3.10;;;;;;;3.48;94.32;100176.03;5030380;28;20017;-75
2023/01/06 04:19:23;;;;;;;6.97;3.10;;;;;;;3.48;94.54;100175.19;5036325;28;20037;-75
2023/01/06 04:21:48;;;;;;;6.53;2.75;;;;;;;3.55;94.26;100183.72;5052737;28;20025;-75
2023/01/06 04:24:14;;;;;;;4.80;3.00;;;;;;;3.40;94.02;100151.22;5052988;28;20024;-75
2023/01/06 04:26:39;;;;;;;3.65;2.88;;;;;;;3.50;94.54;100163.16;5052892;28;20045;-75
2023/01/06 04:29:04;;;;;;;6.53;3.33;;;;;;;3.44;94.08;100156.31;5052595;28;20025;-75
2023/01/06 04:31:30;;;;;;;7.28;4.05;;;;;;;3.44;94.25;100158.91;5052722;28;20485;-75
2023/01/06 04:33:55;;;;;;;7.90;4.05;;;;;;;3.43;94.18;100156.34;5052632;28;20024;-75
2023/01/06 04:36:20;;;;;;;8.20;3.70;;;;;;;3.41;94.13;100163.22;5052727;28;20041;-75
2023/01/06 04:38:46;;;;;;;5.55;3.70;;;;;;;3.38;94.46;100152.97;5052316;28;20021;-75
2023/01/06 04:41:11;;;;;;;8.25;5.25;;;;;;;3.38;94.74;100163.28;5052482;28;20483;-75
2023/01/06 04:43:37;;;;;;;11.38;5.70;;;;;;;3.37;94.91;100167.56;5052520;28;20028;-74
2023/01/06 04:46:03;;;;;;;11.80;6.97;;;;;;;3.37;95.12;100177.88;5052200;28;20025;-75
2023/01/06 04:48:29;;;;;;;10.85;6.65;;;;;;;3.27;95.34;100155.63;5052539;28;20031;-75
2023/01/06 04:51:06;;;;;;;12.68;6.75;;;;;;;3.36;95.14;100178.72;5051658;28;20403;-75
2023/01/06 04:53:39;;;;;;;8.15;4.80;;;;;;;3.37;95.27;100176.97;5052414;28;20104;-75
2023/01/06 04:56:11;;;;;;;6.45;4.13;;;;;;;3.32;95.36;100163.31;5051859;28;20111;-75
2023/01/06 04:58:37;;;;;;;10.73;4.82;;;;;;;3.33;95.78;100165.88;5052405;28;20056;-75
2023/01/06 05:01:11;;;;;;;8.63;4.90;;;;;;;3.30;95.51;100159.91;5052111;28;20052;-75
2023/01/06 05:03:37;;;;;;;7.30;4.15;;;;;;;3.24;95.45;100158.22;5052527;28;20035;-75
2023/01/06 05:06:04;;;;;;;6.55;3.67;;;;;;;3.17;95.48;100156.59;5052092;28;20074;-75
2023/01/06 05:08:30;;;;;;;4.35;2.97;;;;;;;3.05;95.91;100141.25;5052030;28;20033;-75
2023/01/06 05:11:05;;;;;;;5.45;3.28;;;;;;;3.12;96.58;100150.59;5051883;28;20013;-75
2023/01/06 05:13:32;;;;;;;5.00;3.80;;;;;;;3.05;96.66;100141.25;5052174;28;20354;-75
2023/01/06 05:15:57;;;;;;;5.57;3.70;;;;;;;3.05;96.28;100138.66;5051724;28;20028;-75
2023/01/06 05:18:22;;;;;;;8.32;5.03;;;;;;;3.11;96.70;100149.75;5052065;28;20452;-75
2023/01/06 05:20:53;;;;;;;6.32;4.40;;;;;;;3.14;96.63;100165.16;5051820;28;20027;-74
2023/01/06 05:23:18;;;;;;;9.83;6.00;;;;;;;3.13;96.79;100166.03;5051779;28;20364;-75
2023/01/06 05:25:44;;;;;;;11.73;6.53;;;;;;;3.21;97.17;100174.56;5051895;28;20268;-75
2023/01/06 05:28:09;;;;;;;16.52;10.18;;;;;;;3.24;97.10;100165.94;5051987;28;20017;-75
2023/01/06 05:30:35;;;;;;;28.60;18.45;;;;;;;3.22;96.72;100155.66;5051751;28;20033;-75
2023/01/06 05:33:01;;;;;;;18.20;10.18;;;;;;;3.06;96.90;100141.22;5051326;28;20032;-75
2023/01/06 05:35:26;;;;;;;14.00;8.02;;;;;;;3.10;96.95;100152.34;5051475;28;20449;-75
2023/01/06 05:37:55;;;;;;;23.35;15.25;;;;;;;3.03;97.08;100137.81;5051325;28;20021;-75
2023/01/06 05:40:21;;;;;;;13.05;10.40;;;;;;;3.04;97.34;100149.84;5051897;28;20021;-75
2023/01/06 05:42:46;;;;;;;12.88;9.93;;;;;;;3.05;97.62;100157.53;5051644;28;20067;-75
2023/01/06 05:45:12;;;;;;;6.28;5.13;;;;;;;3.09;97.80;100163.50;5051848;28;20028;-75
2023/01/06 05:47:37;;;;;;;9.43;5.97;;;;;;;3.08;97.97;100161.81;5051923;28;20029;-75
2023/01/06 05:50:03;;;;;;;7.15;4.78;;;;;;;3.13;98.29;100166.03;5051350;28;20021;-75
2023/01/06 05:52:28;;;;;;;5.55;4.05;;;;;;;3.21;98.40;100171.13;5051630;28;20021;-74
2023/01/06 05:54:53;;;;;;;7.03;4.13;;;;;;;3.17;98.28;100164.31;5051600;28;20116;-75
2023/01/06 05:57:19;;;;;;;5.55;3.80;;;;;;;3.26;98.40;100171.94;5051636;28;20053;-75
2023/01/06 05:59:44;;;;;;;6.82;3.65;;;;;;;3.28;98.18;100180.50;5051553;28;20013;-75
2023/01/06 06:02:09;;;;;;;4.53;3.38;;;;;;;3.27;98.20;100162.50;5052943;28;20020;-75
2023/01/06 06:04:35;;;;;;;5.82;3.60;;;;;;;3.21;97.82;100164.25;5055432;28;20025;-75
2023/01/06 06:07:00;;;;;;;3.95;3.17;;;;;;;3.23;98.01;100166.81;5055270;28;20047;-75
2023/01/06 06:09:25;;;;;;;7.55;4.43;;;;;;;3.24;98.06;100171.09;5055455;28;20020;-75
2023/01/06 06:11:53;;;;;;;11.00;6.32;;;;;;;3.25;98.45;100178.81;5055232;28;20095;-75
2023/01/06 06:14:18;;;;;;;9.48;5.75;;;;;;;3.21;98.65;100174.56;5055342;28;20491;-75
2023/01/06 06:16:43;;;;;;;10.65;6.60;;;;;;;3.29;98.95;100182.22;5055424;28;20021;-75
2023/01/06 06:19:11;;;;;;;13.07;7.55;;;;;;;3.30;99.01;100186.50;5055217;28;20539;-75
2023/01/06 06:21:36;;;;;;;21.10;12.45;;;;;;;3.22;98.52;100165.97;5055102;28;20029;-75
2023/01/06 06:24:01;;;;;;;23.08;12.10;;;;;;;3.34;98.53;100184.75;5055142;28;20071;-75
2023/01/06 06:26:27;;;;;;;13.07;7.35;;;;;;;3.24;98.41;100168.50;5055254;28;20047;-75
2023/01/06 06:28:52;;;;;;;8.18;5.40;;;;;;;3.25;98.59;100178.81;5054941;28;20453;-75
2023/01/06 06:31:23;;;;;;;13.10;9.05;;;;;;;3.16;98.51;100160.88;5055243;28;20028;-75
2023/01/06 06:33:53;;;;;;;31.98;15.52;;;;;;;3.20;98.44;100169.41;5055074;28;20017;-75
2023/01/06 06:36:19;;;;;;;26.08;15.82;;;;;;;3.08;98.64;100149.78;5054836;28;20025;-75
2023/01/06 06:38:46;;;;;;;9.85;6.25;;;;;;;3.17;98.81;100172.88;5054983;28;20028;-75
2023/01/06 06:41:12;;;;;;;8.98;5.40;;;;;;;3.12;98.97;100171.19;5054598;28;20102;-75
2023/01/06 06:43:38;;;;;;;8.10;5.05;;;;;;;3.16;99.14;100181.47;5054764;28;20376;-75
2023/01/06 06:46:04;;;;;;;7.88;6.95;;;;;;;3.18;99.18;100173.72;5054557;28;20459;-75
2023/01/06 06:48:49;;;;;;;15.40;11.07;;;;;;;3.20;99.26;100169.41;5054635;28;20115;-75
2023/01/06 06:51:17;;;;;;;12.45;9.00;;;;;;;3.14;99.63;100167.75;5053464;28;20414;-75
2023/01/06 06:53:44;;;;;;;11.43;7.75;;;;;;;3.17;99.71;100167.72;5054806;28;20724;-75
2023/01/06 06:56:11;;;;;;;11.10;6.97;;;;;;;3.17;99.87;100165.16;5054331;28;20643;-75
2023/01/06 06:58:37;;;;;;;14.73;7.80;;;;;;;3.18;100.00;100163.44;5054604;28;20032;-75
2023/01/06 07:01:10;;;;;;;20.95;9.75;;;;;;;3.20;100.00;100165.13;5054316;28;20029;-75
2023/01/06 07:03:36;;;;;;;18.10;8.52;;;;;;;3.16;100.00;100162.56;5054682;28;20480;-75
2023/01/06 07:06:03;;;;;;;19.65;9.10;;;;;;;3.19;100.00;100162.56;5054316;28;20039;-75
2023/01/06 07:08:29;;;;;;;13.65;8.00;;;;;;;3.12;100.00;100155.75;5054551;28;20025;-75
2023/01/06 07:10:54;;;;;;;14.07;8.05;;;;;;;3.20;100.00;100175.44;5054213;28;20032;-75
2023/01/06 07:13:19;;;;;;;10.23;6.30;;;;;;;3.16;100.00;100166.03;5053666;28;20032;-75
2023/01/06 07:15:45;;;;;;;8.52;6.03;;;;;;;3.12;100.00;100158.31;5054179;28;20025;-75
2023/01/06 07:18:11;;;;;;;16.55;8.35;;;;;;;3.17;100.00;100166.88;5054249;28;20075;-75
2023/01/06 07:20:37;;;;;;;11.05;6.53;;;;;;;3.11;99.96;100167.75;5054320;28;20052;-75
2023/01/06 07:23:03;;;;;;;14.35;9.25;;;;;;;3.09;100.00;100155.78;5053950;28;20033;-75
2023/01/06 07:25:29;;;;;;;9.93;5.88;;;;;;;3.03;100.00;100164.41;5054049;28;20021;-75
2023/01/06 07:28:04;;;;;;;10.40;6.45;;;;;;;2.92;100.00;100153.34;5053894;28;20024;-75
2023/01/06 07:30:30;;;;;;;11.00;6.85;;;;;;;3.00;100.00;100175.59;5053969;28;20025;-75
2023/01/06 07:32:55;;;;;;;13.00;6.78;;;;;;;2.96;100.00;100161.03;5053991;28;20091;-75
2023/01/06 07:35:21;;;;;;;12.45;7.13;;;;;;;2.98;100.00;100158.44;5052779;28;20020;-75
2023/01/06 07:37:46;;;;;;;12.35;7.60;;;;;;;2.98;100.00;100164.44;5053958;28;20047;-75
2023/01/06 07:40:12;;;;;;;14.07;8.93;;;;;;;2.99;100.00;100165.28;5053576;28;20020;-75
2023/01/06 07:42:38;;;;;;;10.43;6.78;;;;;;;2.88;100.00;100144.78;5054022;28;20040;-75
2023/01/06 07:45:04;;;;;;;13.02;7.55;;;;;;;2.94;100.00;100159.31;5053448;28;20372;-75
2023/01/06 07:47:29;;;;;;;13.07;7.78;;;;;;;2.95;100.00;100155.88;5053751;28;20112;-77
2023/01/06 07:49:55;;;;;;;15.13;9.20;;;;;;;2.93;100.00;100160.19;5053709;28;20023;-75
2023/01/06 07:52:20;;;;;;;29.05;10.43;;;;;;;2.95;100.00;100158.44;5053676;28;20025;-75
2023/01/06 07:54:45;;;;;;;18.23;9.85;;;;;;;2.93;100.00;100149.91;5053710;28;20036;-74
2023/01/06 07:57:11;;;;;;;13.52;7.93;;;;;;;2.93;100.00;100140.47;5053166;28;20029;-75
2023/01/06 07:59:36;;;;;;;19.08;13.88;;;;;;;2.94;100.00;100129.28;5053338;28;20033;-75
2023/01/06 08:02:01;;;;;;;12.07;8.20;;;;;;;3.02;100.00;100138.69;5053157;28;20372;-75
2023/01/06 08:04:27;;;;;;;17.70;11.25;;;;;;;3.00;100.00;100126.69;5053243;28;20025;-75
2023/01/06 08:06:52;;;;;;;17.65;10.63;;;;;;;3.00;100.00;100126.69;5053074;28;20036;-75
2023/01/06 08:09:17;;;;;;;11.48;7.68;;;;;;;2.93;100.00;100112.16;5053384;28;20017;-75
2023/01/06 08:11:43;;;;;;;11.73;7.30;;;;;;;2.79;100.00;100101.13;5053129;28;20032;-74
2023/01/06 08:14:10;;;;;;;18.30;14.77;;;;;;;2.84;100.00;100108.81;5053110;28;20020;-75
2023/01/06 08:16:37;;;;;;;18.00;10.38;;;;;;;2.89;100.00;100115.63;5052966;28;20376;-75
2023/01/06 08:19:03;;;;;;;13.50;8.50;;;;;;;3.00;100.00;100118.13;5052991;28;20104;-74
2023/01/06 08:21:28;;;;;;;10.55;7.38;;;;;;;3.02;100.00;100118.09;5052929;28;20534;-74
2023/01/06 08:23:54;;;;;;;22.63;14.10;;;;;;;3.06;100.00;100124.94;5052245;28;20021;-75
2023/01/06 08:26:19;;;;;;;9.50;6.43;;;;;;;3.08;100.00;100126.63;5052799;28;20029;-75
2023/01/06 08:28:45;;;;;;;18.00;8.90;;;;;;;3.10;100.00;100118.88;5052739;28;20025;-74
2023/01/06 08:31:16;;;;;;;11.05;7.20;;;;;;;3.14;100.00;100134.28;5052733;28;20024;-75
2023/01/06 08:33:42;;;;;;;9.85;7.40;;;;;;;3.08;99.60;100113.75;5053103;28;20048;-74
2023/01/06 08:36:10;;;;;;;9.00;6.28;;;;;;;3.19;99.54;100131.66;5052776;28;20059;-75
2023/01/06 08:38:36;;;;;;;12.45;7.95;;;;;;;3.13;99.34;100111.16;5052621;28;20518;-75
2023/01/06 08:41:02;;;;;;;8.93;6.22;;;;;;;3.17;99.39;100123.13;5052268;28;20029;-75
2023/01/06 08:43:28;;;;;;;11.80;7.18;;;;;;;3.06;99.49;100094.03;5052481;28;20032;-75
2023/01/06 08:45:59;;;;;;;15.82;7.40;;;;;;;3.19;99.27;100114.50;5052484;28;20032;-75
2023/01/06 08:48:25;;;;;;;;;;;;;;;3.21;99.37;100109.34;5053089;28;20090;-75
2023/01/06 08:50:50;;;;;;;12.02;6.90;;;;;;;3.17;99.33;100094.81;5052555;28;19913;-74
2023/01/06 08:53:16;;;;;;;14.02;7.20;;;;;;;3.18;99.20;100099.94;5052216;28;20377;-77
2023/01/06 08:55:41;;;;;;;7.40;5.95;;;;;;;3.34;98.99;100125.53;5052175;28;20048;-77
2023/01/06 08:58:08;;;;;;;15.60;8.85;;;;;;;3.31;98.38;100121.25;5052344;28;20104;-77
2023/01/06 09:00:34;;;;;;;16.77;7.88;;;;;;;3.33;98.63;100114.41;5052751;28;20025;-76
2023/01/06 09:02:59;;;;;;;22.02;9.68;;;;;;;3.33;98.63;100118.66;5052091;28;20035;-77
2023/01/06 09:05:24;;;;;;;15.05;8.40;;;;;;;3.27;98.28;100093.00;5052626;28;20078;-77
2023/01/06 09:07:50;;;;;;;13.90;8.90;;;;;;;3.34;98.38;100103.22;5052258;28;20032;-77
2023/01/06 09:10:17;;;;;;;14.77;8.20;;;;;;;3.38;98.33;100101.47;5051881;28;20021;-77
2023/01/06 09:12:42;;;;;;;11.27;8.15;;;;;;;3.40;98.19;100105.72;5052305;28;20029;-76
2023/01/06 09:15:08;;;;;;;13.02;9.73;;;;;;;3.39;98.11;100092.88;5052110;28;20017;-77
2023/01/06 09:17:34;;;;;;;11.45;8.38;;;;;;;3.35;97.77;100089.47;5052161;28;20056;-77
2023/01/06 09:19:59;;;;;;;9.88;7.72;;;;;;;3.39;98.47;100096.28;5051783;28;20469;-77
2023/01/06 09:22:24;;;;;;;9.25;7.20;;;;;;;3.39;98.25;100078.28;5052018;28;20032;-77
2023/01/06 09:24:50;;;;;;;8.48;6.82;;;;;;;3.50;97.84;100085.91;5051820;28;20687;-77
2023/01/06 09:27:15;;;;;;;11.88;7.95;;;;;;;3.51;96.91;100090.16;5051573;28;20032;-77
2023/01/06 09:29:40;;;;;;;11.40;7.93;;;;;;;3.52;97.27;100081.56;5052051;28;20028;-77
2023/01/06 09:32:06;;;;;;;12.18;8.68;;;;;;;3.50;97.15;100070.44;5051836;28;20025;-76
2023/01/06 09:34:31;;;;;;;13.52;9.27;;;;;;;3.63;97.23;100091.75;5051938;28;20017;-77
2023/01/06 09:36:57;;;;;;;12.32;9.07;;;;;;;3.54;96.62;100082.41;5051238;28;20025;-77
2023/01/06 09:39:22;;;;;;;14.38;8.73;;;;;;;3.68;96.69;100088.25;5051787;28;20112;-77
2023/01/06 09:42:15;;;;;;;12.70;8.73;;;;;;;3.72;96.94;100089.94;5051425;28;20044;-77
2023/01/06 09:44:48;;;;;;;12.30;8.95;;;;;;;3.78;96.81;100089.00;5051868;28;20032;-77
2023/01/06 09:47:17;;;;;;;13.75;9.23;;;;;;;3.78;96.71;100083.84;5051793;28;20036;-77
2023/01/06 09:50:07;;;;;;;13.68;8.82;;;;;;;3.82;96.58;100103.53;5051628;28;20036;-77
2023/01/06 09:52:54;;;;;;;9.93;6.97;;;;;;;3.80;96.11;100095.00;5051791;28;20033;-77
2023/01/06 09:55:37;;;;;;;9.13;6.68;;;;;;;3.64;95.98;100078.84;5051708;28;20017;-77
2023/01/06 09:58:10;;;;;;;12.18;7.30;;;;;;;3.57;96.44;100074.63;5051519;28;20024;-76
2023/01/06 10:00:51;;;;;;;9.98;7.32;;;;;;;3.61;96.84;100085.75;5051930;28;20117;-76
2023/01/06 10:03:21;;;;;;;13.98;7.50;;;;;;;3.52;97.03;100068.69;5051377;28;20598;-76
2023/01/06 10:06:04;;;;;;;10.93;7.40;;;;;;;3.61;97.33;100063.44;5051692;28;20472;-76
2023/01/06 10:08:41;;;;;;;9.73;6.70;;;;;;;3.79;97.07;100066.66;5051629;28;20021;-76
2023/01/06 10:11:09;;;;;;;11.15;6.85;;;;;;;3.83;96.97;100056.28;5051414;28;20021;-76
2023/01/06 10:14:16;;;;;;;8.38;6.80;;;;;;;3.89;96.74;100048.50;5051832;28;20028;-76
2023/01/06 10:16:58;;;;;;;8.35;7.55;;;;;;;3.97;96.77;100045.81;5028984;28;20471;-76
2023/01/06 10:19:45;;;;;;;11.20;7.85;;;;;;;4.04;96.70;100044.84;5029109;28;20029;-76
2023/01/06 10:22:20;;;;;;;13.23;8.27;;;;;;;3.99;95.94;100046.63;5028964;28;20033;-76
2023/01/06 10:25:08;;;;;;;12.82;7.88;;;;;;;3.92;96.11;100045.03;5029173;28;20449;-76
2023/01/06 10:28:04;;;;;;;15.77;10.32;;;;;;;3.91;96.97;100033.00;4951082;29;20043;-76
2023/01/06 10:30:50;;;;;;;11.63;8.38;;;;;;;3.99;97.38;100023.44;4894013;29;20044;-76
2023/01/06 10:33:29;;;;;;;14.13;8.40;;;;;;;4.03;96.30;100039.72;4893800;29;20044;-76
2023/01/06 10:35:56;;;;;;;12.77;7.38;;;;;;;4.03;96.50;100032.00;4894163;29;20028;-76
2023/01/06 10:38:33;;;;;;;10.65;7.20;;;;;;;4.08;96.61;100017.31;4893764;29;20048;-76
2023/01/06 10:41:18;;;;;;;30.00;20.15;;;;;;;4.12;97.20;100012.09;4894091;29;20044;-76
2023/01/06 10:43:44;;;;;;;18.13;10.73;;;;;;;4.10;96.51;99992.38;4894053;29;20068;-76
2023/01/06 10:46:09;;;;;;;15.77;10.20;;;;;;;4.08;96.77;99988.94;4893538;29;20512;-76
2023/01/06 10:48:35;;;;;;;16.27;9.75;;;;;;;4.19;96.99;99982.78;4895860;29;20528;-76
2023/01/06 10:51:37;;;;;;;25.33;17.50;;;;;;;4.37;96.66;99986.78;4896940;29;20041;-76
2023/01/06 10:54:08;;;;;;;12.60;8.85;;;;;;;4.34;95.98;99970.50;4878057;29;20033;-76
2023/01/06 10:56:34;;;;;;;;;;;;;;;4.36;96.67;99968.75;4878845;29;20112;-76
2023/01/06 10:59:10;;;;;;;15.13;9.70;;;;;;;4.31;96.42;99966.25;4878423;29;19962;-76
2023/01/06 11:01:48;;;;;;;21.52;14.10;;;;;;;4.34;96.91;99958.50;4878392;29;20486;-76
2023/01/06 11:04:16;;;;;;;28.30;15.20;;;;;;;4.39;96.99;99937.78;4891629;29;20043;-76
2023/01/06 11:07:01;;;;;;;14.73;8.50;;;;;;;4.56;96.76;99951.22;4925514;28;20570;-76
2023/01/06 11:09:39;;;;;;;18.50;12.15;;;;;;;4.73;96.53;99961.25;4973313;28;20054;-76
2023/01/06 11:12:19;;;;;;;12.93;8.60;;;;;;;4.74;95.42;99935.41;4973073;28;20077;-76
2023/01/06 11:14:57;;;;;;;17.00;12.77;;;;;;;4.84;94.74;99941.25;4973351;28;20035;-76
2023/01/06 11:17:24;;;;;;;18.15;9.82;;;;;;;4.75;95.07;99941.44;4972943;28;20601;-76
2023/01/06 11:20:09;;;;;;;16.65;9.82;;;;;;;4.70;95.38;99931.19;4973111;28;20075;-76
2023/01/06 11:22:40;;;;;;;19.23;9.63;;;;;;;4.73;96.06;99923.41;4953715;29;20078;-76
2023/01/06 11:25:20;;;;;;;16.23;10.98;;;;;;;4.73;95.34;99914.81;4953494;29;20114;-76
2023/01/06 11:28:18;;;;;;;16.48;9.30;;;;;;;4.75;95.71;99919.03;4977030;28;20042;-76
2023/01/06 11:30:53;;;;;;;13.93;9.07;;;;;;;4.67;95.78;99896.84;5011866;28;20029;-76
2023/01/06 11:33:25;;;;;;;15.13;8.70;;;;;;;4.64;96.90;99902.09;5011638;28;20034;-76
2023/01/06 11:35:51;;;;;;;14.45;8.77;;;;;;;4.59;97.47;99891.81;5011995;28;20386;-76
2023/01/06 11:38:19;;;;;;;12.95;8.60;;;;;;;4.61;98.50;99882.34;4995072;28;20523;-76
2023/01/06 11:40:48;;;;;;;17.70;9.13;;;;;;;4.69;99.45;99884.78;5011574;28;20034;-76
2023/01/06 11:43:24;;;;;;;13.65;8.27;;;;;;;4.69;99.82;99869.31;5010979;28;20046;-76
2023/01/06 11:46:04;;;;;;;12.95;7.63;;;;;;;4.72;99.51;99871.84;5011515;28;20169;-76